sensor_id;sensor_type;location;lat;lon;timestamp;temperature;humidity
17571;DHT22;8903;52.220;20.978;2022-10-16T00:00:40;14.30;99.90
17571;DHT22;8903;52.220;20.978;2022-10-16T00:03:09;14.40;99.90
17571;DHT22;8903;52.220;20.978;2022-10-16T00:05:38;14.40;99.90
17571;DHT22;8903;52.220;20.978;2022-10-16T00:08:06;14.40;99.90
17571;DHT22;8903;52.220;20.978;2022-10-16T00:10:33;14.40;99.90
17571;DHT22;8903;52.220;20.978;2022-10-16T00:13:02;14.40;99.90
17571;DHT22;8903;52.220;20.978;2022-10-16T00:15:29;14.40;99.90
17571;DHT22;8903;52.220;20.978;2022-10-16T00:17:56;14.40;99.90
17571;DHT22;8903;52.220;20.978;2022-10-16T00:20:23;14.40;99.90
17571;DHT22;8903;52.220;20.978;2022-10-16T00:22:50;14.40;99.90
17571;DHT22;8903;52.220;20.978;2022-10-16T00:25:17;14.40;99.90
17571;DHT22;8903;52.220;20.978;2022-10-16T00:27:44;14.40;99.90
17571;DHT22;8903;52.220;20.978;2022-10-16T00:30:12;14.40;99.90
17571;DHT22;8903;52.220;20.978;2022-10-16T00:32:39;14.40;99.90
17571;DHT22;8903;52.220;20.978;2022-10-16T00:35:06;14.40;99.90
17571;DHT22;8903;52.220;20.978;2022-10-16T00:37:33;14.40;99.90
17571;DHT22;8903;52.220;20.978;2022-10-16T00:40:00;14.40;99.90
17571;DHT22;8903;52.220;20.978;2022-10-16T00:42:27;14.40;99.90
17571;DHT22;8903;52.220;20.978;2022-10-16T00:44:56;14.40;99.90
17571;DHT22;8903;52.220;20.978;2022-10-16T00:47:27;14.40;99.90
17571;DHT22;8903;52.220;20.978;2022-10-16T00:50:00;14.40;99.90
17571;DHT22;8903;52.220;20.978;2022-10-16T00:52:28;14.30;99.90
17571;DHT22;8903;52.220;20.978;2022-10-16T00:54:56;14.30;99.90
17571;DHT22;8903;52.220;20.978;2022-10-16T00:57:23;14.30;99.90
17571;DHT22;8903;52.220;20.978;2022-10-16T00:59:51;14.30;99.90
17571;DHT22;8903;52.220;20.978;2022-10-16T01:02:18;14.30;99.90
17571;DHT22;8903;52.220;20.978;2022-10-16T01:04:48;14.30;99.90
17571;DHT22;8903;52.220;20.978;2022-10-16T01:07:23;14.30;99.90
17571;DHT22;8903;52.220;20.978;2022-10-16T01:09:57;14.30;99.90
17571;DHT22;8903;52.220;20.978;2022-10-16T01:12:36;14.20;99.90
17571;DHT22;8903;52.220;20.978;2022-10-16T01:15:12;14.20;99.90
17571;DHT22;8903;52.220;20.978;2022-10-16T01:17:45;14.20;99.90
17571;DHT22;8903;52.220;20.978;2022-10-16T01:20:22;14.20;99.90
17571;DHT22;8903;52.220;20.978;2022-10-16T01:23:06;14.30;99.90
17571;DHT22;8903;52.220;20.978;2022-10-16T01:28:36;14.20;99.90
17571;DHT22;8903;52.220;20.978;2022-10-16T01:31:05;14.30;99.90
17571;DHT22;8903;52.220;20.978;2022-10-16T01:33:35;14.20;99.90
17571;DHT22;8903;52.220;20.978;2022-10-16T01:36:10;14.20;99.90
17571;DHT22;8903;52.220;20.978;2022-10-16T01:38:39;14.20;99.90
17571;DHT22;8903;52.220;20.978;2022-10-16T01:41:10;14.20;99.90
17571;DHT22;8903;52.220;20.978;2022-10-16T01:43:42;14.20;99.90
17571;DHT22;8903;52.220;20.978;2022-10-16T01:46:10;14.20;99.90
17571;DHT22;8903;52.220;20.978;2022-10-16T01:48:39;14.20;99.90
17571;DHT22;8903;52.220;20.978;2022-10-16T01:51:10;14.20;99.90
17571;DHT22;8903;52.220;20.978;2022-10-16T01:53:39;14.20;99.90
17571;DHT22;8903;52.220;20.978;2022-10-16T01:56:09;14.10;99.90
17571;DHT22;8903;52.220;20.978;2022-10-16T01:58:39;14.10;99.90
17571;DHT22;8903;52.220;20.978;2022-10-16T02:01:11;14.00;99.90
17571;DHT22;8903;52.220;20.978;2022-10-16T02:03:41;14.00;99.90
17571;DHT22;8903;52.220;20.978;2022-10-16T02:06:09;14.10;99.90
17571;DHT22;8903;52.220;20.978;2022-10-16T02:08:36;14.00;99.90
17571;DHT22;8903;52.220;20.978;2022-10-16T02:11:04;14.00;99.90
17571;DHT22;8903;52.220;20.978;2022-10-16T02:13:35;14.00;99.90
17571;DHT22;8903;52.220;20.978;2022-10-16T02:16:06;14.00;99.90
17571;DHT22;8903;52.220;20.978;2022-10-16T02:18:33;14.00;99.90
17571;DHT22;8903;52.220;20.978;2022-10-16T02:21:04;14.00;99.90
17571;DHT22;8903;52.220;20.978;2022-10-16T02:23:40;14.00;99.90
17571;DHT22;8903;52.220;20.978;2022-10-16T02:26:12;13.90;99.90
17571;DHT22;8903;52.220;20.978;2022-10-16T02:28:43;13.90;99.90
17571;DHT22;8903;52.220;20.978;2022-10-16T02:31:16;13.90;99.90
17571;DHT22;8903;52.220;20.978;2022-10-16T02:33:45;14.00;99.90
17571;DHT22;8903;52.220;20.978;2022-10-16T02:36:13;14.00;99.90
17571;DHT22;8903;52.220;20.978;2022-10-16T02:38:40;13.90;99.90
17571;DHT22;8903;52.220;20.978;2022-10-16T02:41:08;14.00;99.90
17571;DHT22;8903;52.220;20.978;2022-10-16T02:43:35;14.00;99.90
17571;DHT22;8903;52.220;20.978;2022-10-16T02:46:02;14.00;99.90
17571;DHT22;8903;52.220;20.978;2022-10-16T02:48:30;14.00;99.90
17571;DHT22;8903;52.220;20.978;2022-10-16T02:50:57;14.00;99.90
17571;DHT22;8903;52.220;20.978;2022-10-16T02:53:24;14.00;99.90
17571;DHT22;8903;52.220;20.978;2022-10-16T02:55:51;14.00;99.90
17571;DHT22;8903;52.220;20.978;2022-10-16T02:58:18;14.00;99.90
17571;DHT22;8903;52.220;20.978;2022-10-16T03:00:45;14.00;99.90
17571;DHT22;8903;52.220;20.978;2022-10-16T03:03:12;14.00;99.90
17571;DHT22;8903;52.220;20.978;2022-10-16T03:05:40;14.10;99.90
17571;DHT22;8903;52.220;20.978;2022-10-16T03:08:09;14.10;99.90
17571;DHT22;8903;52.220;20.978;2022-10-16T03:10:36;14.00;99.90
17571;DHT22;8903;52.220;20.978;2022-10-16T03:13:02;14.00;99.90
17571;DHT22;8903;52.220;20.978;2022-10-16T03:15:30;14.00;99.90
17571;DHT22;8903;52.220;20.978;2022-10-16T03:17:58;14.00;99.90
17571;DHT22;8903;52.220;20.978;2022-10-16T03:20:25;14.00;99.90
17571;DHT22;8903;52.220;20.978;2022-10-16T03:22:53;14.00;99.90
17571;DHT22;8903;52.220;20.978;2022-10-16T03:25:20;14.00;99.90
17571;DHT22;8903;52.220;20.978;2022-10-16T03:27:47;14.00;99.90
17571;DHT22;8903;52.220;20.978;2022-10-16T03:30:14;14.00;99.90
17571;DHT22;8903;52.220;20.978;2022-10-16T03:32:42;14.00;99.90
17571;DHT22;8903;52.220;20.978;2022-10-16T03:35:10;14.00;99.90
17571;DHT22;8903;52.220;20.978;2022-10-16T03:37:37;14.00;99.90
17571;DHT22;8903;52.220;20.978;2022-10-16T03:40:06;14.00;99.90
17571;DHT22;8903;52.220;20.978;2022-10-16T03:42:33;14.00;99.90
17571;DHT22;8903;52.220;20.978;2022-10-16T03:45:00;14.00;99.90
17571;DHT22;8903;52.220;20.978;2022-10-16T03:47:27;14.00;99.90
17571;DHT22;8903;52.220;20.978;2022-10-16T03:49:54;14.00;99.90
17571;DHT22;8903;52.220;20.978;2022-10-16T03:52:20;13.90;99.90
17571;DHT22;8903;52.220;20.978;2022-10-16T03:54:47;13.90;99.90
17571;DHT22;8903;52.220;20.978;2022-10-16T03:57:16;13.90;99.90
17571;DHT22;8903;52.220;20.978;2022-10-16T03:59:43;13.90;99.90
17571;DHT22;8903;52.220;20.978;2022-10-16T04:02:10;13.80;99.90
17571;DHT22;8903;52.220;20.978;2022-10-16T04:04:37;13.80;99.90
17571;DHT22;8903;52.220;20.978;2022-10-16T04:07:04;13.80;99.90
17571;DHT22;8903;52.220;20.978;2022-10-16T04:09:30;13.70;99.90
17571;DHT22;8903;52.220;20.978;2022-10-16T04:11:57;13.70;99.90
17571;DHT22;8903;52.220;20.978;2022-10-16T04:14:26;13.50;99.90
17571;DHT22;8903;52.220;20.978;2022-10-16T04:16:52;13.60;99.90
17571;DHT22;8903;52.220;20.978;2022-10-16T04:19:19;13.50;99.90
17571;DHT22;8903;52.220;20.978;2022-10-16T04:21:46;13.50;99.90
17571;DHT22;8903;52.220;20.978;2022-10-16T04:24:13;13.50;99.90
17571;DHT22;8903;52.220;20.978;2022-10-16T04:26:43;13.50;99.90
17571;DHT22;8903;52.220;20.978;2022-10-16T04:29:10;13.50;99.90
17571;DHT22;8903;52.220;20.978;2022-10-16T04:31:38;13.50;99.90
17571;DHT22;8903;52.220;20.978;2022-10-16T04:34:05;13.50;99.90
17571;DHT22;8903;52.220;20.978;2022-10-16T04:36:32;13.50;99.90
17571;DHT22;8903;52.220;20.978;2022-10-16T04:38:59;13.50;99.90
17571;DHT22;8903;52.220;20.978;2022-10-16T04:41:25;13.50;99.90
17571;DHT22;8903;52.220;20.978;2022-10-16T04:43:52;13.50;99.90
17571;DHT22;8903;52.220;20.978;2022-10-16T04:46:19;13.50;99.90
17571;DHT22;8903;52.220;20.978;2022-10-16T04:48:47;13.50;99.90
17571;DHT22;8903;52.220;20.978;2022-10-16T04:51:14;13.50;99.90
17571;DHT22;8903;52.220;20.978;2022-10-16T04:53:41;13.40;99.90
17571;DHT22;8903;52.220;20.978;2022-10-16T04:56:08;13.40;99.90
17571;DHT22;8903;52.220;20.978;2022-10-16T04:58:35;13.30;99.90
17571;DHT22;8903;52.220;20.978;2022-10-16T05:01:02;13.30;99.90
17571;DHT22;8903;52.220;20.978;2022-10-16T05:03:29;13.30;99.90
17571;DHT22;8903;52.220;20.978;2022-10-16T05:05:57;13.20;99.90
17571;DHT22;8903;52.220;20.978;2022-10-16T05:08:24;13.10;99.90
17571;DHT22;8903;52.220;20.978;2022-10-16T05:10:51;13.10;99.90
17571;DHT22;8903;52.220;20.978;2022-10-16T05:13:17;13.10;99.90
17571;DHT22;8903;52.220;20.978;2022-10-16T05:15:46;13.10;99.90
17571;DHT22;8903;52.220;20.978;2022-10-16T05:18:13;13.10;99.90
17571;DHT22;8903;52.220;20.978;2022-10-16T05:20:41;13.10;99.90
17571;DHT22;8903;52.220;20.978;2022-10-16T05:23:09;13.00;99.90
17571;DHT22;8903;52.220;20.978;2022-10-16T05:25:37;13.00;99.90
17571;DHT22;8903;52.220;20.978;2022-10-16T05:28:04;13.00;99.90
17571;DHT22;8903;52.220;20.978;2022-10-16T05:30:31;13.00;99.90
17571;DHT22;8903;52.220;20.978;2022-10-16T05:32:57;13.00;99.90
17571;DHT22;8903;52.220;20.978;2022-10-16T05:35:24;13.00;99.90
17571;DHT22;8903;52.220;20.978;2022-10-16T05:37:52;13.00;99.90
17571;DHT22;8903;52.220;20.978;2022-10-16T05:40:20;13.00;99.90
17571;DHT22;8903;52.220;20.978;2022-10-16T05:42:47;13.00;99.90
17571;DHT22;8903;52.220;20.978;2022-10-16T05:45:14;12.90;99.90
17571;DHT22;8903;52.220;20.978;2022-10-16T05:47:41;12.90;99.90
17571;DHT22;8903;52.220;20.978;2022-10-16T05:50:08;12.90;99.90
17571;DHT22;8903;52.220;20.978;2022-10-16T05:52:35;12.90;99.90
17571;DHT22;8903;52.220;20.978;2022-10-16T05:55:02;12.90;99.90
17571;DHT22;8903;52.220;20.978;2022-10-16T05:57:31;13.00;99.90
17571;DHT22;8903;52.220;20.978;2022-10-16T05:59:57;12.90;99.90
17571;DHT22;8903;52.220;20.978;2022-10-16T06:02:24;12.90;99.90
17571;DHT22;8903;52.220;20.978;2022-10-16T06:04:51;12.90;99.90
17571;DHT22;8903;52.220;20.978;2022-10-16T06:07:19;13.00;99.90
17571;DHT22;8903;52.220;20.978;2022-10-16T06:09:48;13.00;99.90
17571;DHT22;8903;52.220;20.978;2022-10-16T06:12:15;13.00;99.90
17571;DHT22;8903;52.220;20.978;2022-10-16T06:14:44;13.00;99.90
17571;DHT22;8903;52.220;20.978;2022-10-16T06:17:12;13.10;99.90
17571;DHT22;8903;52.220;20.978;2022-10-16T06:19:39;13.10;99.90
17571;DHT22;8903;52.220;20.978;2022-10-16T06:22:06;13.10;99.90
17571;DHT22;8903;52.220;20.978;2022-10-16T06:24:33;13.20;99.90
17571;DHT22;8903;52.220;20.978;2022-10-16T06:27:00;13.30;99.90
17571;DHT22;8903;52.220;20.978;2022-10-16T06:29:26;13.30;99.90
17571;DHT22;8903;52.220;20.978;2022-10-16T06:31:55;13.40;99.90
17571;DHT22;8903;52.220;20.978;2022-10-16T06:34:21;13.40;99.90
17571;DHT22;8903;52.220;20.978;2022-10-16T06:36:48;13.50;99.90
17571;DHT22;8903;52.220;20.978;2022-10-16T06:39:15;13.50;99.90
17571;DHT22;8903;52.220;20.978;2022-10-16T06:41:42;13.60;99.90
17571;DHT22;8903;52.220;20.978;2022-10-16T06:44:15;13.60;99.90
17571;DHT22;8903;52.220;20.978;2022-10-16T06:46:42;13.70;99.90
17571;DHT22;8903;52.220;20.978;2022-10-16T06:49:10;13.80;99.90
17571;DHT22;8903;52.220;20.978;2022-10-16T06:51:37;13.90;99.90
17571;DHT22;8903;52.220;20.978;2022-10-16T06:54:06;14.00;99.90
17571;DHT22;8903;52.220;20.978;2022-10-16T06:56:34;14.10;99.90
17571;DHT22;8903;52.220;20.978;2022-10-16T06:59:01;14.20;99.90
17571;DHT22;8903;52.220;20.978;2022-10-16T07:01:29;14.30;99.90
17571;DHT22;8903;52.220;20.978;2022-10-16T07:03:56;14.40;99.90
17571;DHT22;8903;52.220;20.978;2022-10-16T07:06:25;14.50;99.90
17571;DHT22;8903;52.220;20.978;2022-10-16T07:08:52;14.50;99.90
17571;DHT22;8903;52.220;20.978;2022-10-16T07:11:21;14.60;99.90
17571;DHT22;8903;52.220;20.978;2022-10-16T07:13:50;14.70;99.90
17571;DHT22;8903;52.220;20.978;2022-10-16T07:16:18;14.70;99.90
17571;DHT22;8903;52.220;20.978;2022-10-16T07:18:46;14.70;99.90
17571;DHT22;8903;52.220;20.978;2022-10-16T07:21:17;14.70;99.90
17571;DHT22;8903;52.220;20.978;2022-10-16T07:23:50;14.60;99.90
17571;DHT22;8903;52.220;20.978;2022-10-16T07:26:17;14.70;99.90
17571;DHT22;8903;52.220;20.978;2022-10-16T07:28:44;14.70;99.90
17571;DHT22;8903;52.220;20.978;2022-10-16T07:31:13;14.70;99.90
17571;DHT22;8903;52.220;20.978;2022-10-16T07:33:41;14.80;99.90
17571;DHT22;8903;52.220;20.978;2022-10-16T07:36:10;14.90;99.90
17571;DHT22;8903;52.220;20.978;2022-10-16T07:38:37;15.00;99.90
17571;DHT22;8903;52.220;20.978;2022-10-16T07:41:07;15.00;99.90
17571;DHT22;8903;52.220;20.978;2022-10-16T07:43:34;15.00;99.90
17571;DHT22;8903;52.220;20.978;2022-10-16T07:46:01;15.10;99.90
17571;DHT22;8903;52.220;20.978;2022-10-16T07:48:30;15.30;99.90
17571;DHT22;8903;52.220;20.978;2022-10-16T07:50:57;15.50;99.90
17571;DHT22;8903;52.220;20.978;2022-10-16T07:53:25;15.70;99.90
17571;DHT22;8903;52.220;20.978;2022-10-16T07:55:52;15.90;99.90
17571;DHT22;8903;52.220;20.978;2022-10-16T07:58:20;16.00;99.90
17571;DHT22;8903;52.220;20.978;2022-10-16T08:00:47;16.20;99.90
17571;DHT22;8903;52.220;20.978;2022-10-16T08:03:14;16.30;99.90
17571;DHT22;8903;52.220;20.978;2022-10-16T08:05:40;16.50;99.90
17571;DHT22;8903;52.220;20.978;2022-10-16T08:08:12;16.60;99.90
17571;DHT22;8903;52.220;20.978;2022-10-16T08:10:39;16.70;99.90
17571;DHT22;8903;52.220;20.978;2022-10-16T08:13:06;16.70;99.90
17571;DHT22;8903;52.220;20.978;2022-10-16T08:15:34;16.80;99.90
17571;DHT22;8903;52.220;20.978;2022-10-16T08:18:03;17.00;99.90
17571;DHT22;8903;52.220;20.978;2022-10-16T08:20:31;17.10;99.90
17571;DHT22;8903;52.220;20.978;2022-10-16T08:22:59;17.30;99.90
17571;DHT22;8903;52.220;20.978;2022-10-16T08:25:26;17.30;99.90
17571;DHT22;8903;52.220;20.978;2022-10-16T08:27:54;17.30;99.90
17571;DHT22;8903;52.220;20.978;2022-10-16T08:30:22;17.40;99.90
17571;DHT22;8903;52.220;20.978;2022-10-16T08:32:51;17.50;99.90
17571;DHT22;8903;52.220;20.978;2022-10-16T08:35:17;17.60;99.90
17571;DHT22;8903;52.220;20.978;2022-10-16T08:37:44;17.50;99.90
17571;DHT22;8903;52.220;20.978;2022-10-16T08:40:17;17.50;99.90
17571;DHT22;8903;52.220;20.978;2022-10-16T08:45:44;17.50;99.90
17571;DHT22;8903;52.220;20.978;2022-10-16T08:48:22;17.60;99.90
17571;DHT22;8903;52.220;20.978;2022-10-16T08:50:51;17.60;99.90
17571;DHT22;8903;52.220;20.978;2022-10-16T08:53:22;17.60;99.90
17571;DHT22;8903;52.220;20.978;2022-10-16T08:55:51;17.60;99.90
17571;DHT22;8903;52.220;20.978;2022-10-16T08:58:20;17.70;99.90
17571;DHT22;8903;52.220;20.978;2022-10-16T09:00:49;17.80;99.90
17571;DHT22;8903;52.220;20.978;2022-10-16T09:03:32;17.90;99.90
17571;DHT22;8903;52.220;20.978;2022-10-16T09:06:21;18.00;99.90
17571;DHT22;8903;52.220;20.978;2022-10-16T09:09:06;18.00;99.90
17571;DHT22;8903;52.220;20.978;2022-10-16T09:11:44;18.00;99.90
17571;DHT22;8903;52.220;20.978;2022-10-16T09:14:29;18.10;99.90
17571;DHT22;8903;52.220;20.978;2022-10-16T09:17:13;18.20;99.90
17571;DHT22;8903;52.220;20.978;2022-10-16T09:19:51;18.30;99.90
17571;DHT22;8903;52.220;20.978;2022-10-16T09:22:22;18.30;99.90
17571;DHT22;8903;52.220;20.978;2022-10-16T09:24:51;18.40;99.90
17571;DHT22;8903;52.220;20.978;2022-10-16T09:27:18;18.50;99.90
17571;DHT22;8903;52.220;20.978;2022-10-16T09:29:45;18.50;99.90
17571;DHT22;8903;52.220;20.978;2022-10-16T09:32:14;18.50;99.90
17571;DHT22;8903;52.220;20.978;2022-10-16T09:34:46;18.70;99.90
17571;DHT22;8903;52.220;20.978;2022-10-16T09:37:18;18.80;99.90
17571;DHT22;8903;52.220;20.978;2022-10-16T09:39:46;18.90;99.90
17571;DHT22;8903;52.220;20.978;2022-10-16T09:42:16;19.00;99.90
17571;DHT22;8903;52.220;20.978;2022-10-16T09:44:47;19.00;99.90
17571;DHT22;8903;52.220;20.978;2022-10-16T09:47:17;19.00;99.90
17571;DHT22;8903;52.220;20.978;2022-10-16T09:49:55;19.00;99.90
17571;DHT22;8903;52.220;20.978;2022-10-16T09:52:23;19.00;99.90
17571;DHT22;8903;52.220;20.978;2022-10-16T09:54:52;18.90;99.90
17571;DHT22;8903;52.220;20.978;2022-10-16T09:57:20;19.00;99.90
17571;DHT22;8903;52.220;20.978;2022-10-16T09:59:49;19.00;99.90
17571;DHT22;8903;52.220;20.978;2022-10-16T10:02:18;19.00;99.90
17571;DHT22;8903;52.220;20.978;2022-10-16T10:04:49;19.10;99.90
17571;DHT22;8903;52.220;20.978;2022-10-16T10:07:23;19.30;99.90
17571;DHT22;8903;52.220;20.978;2022-10-16T10:09:50;19.30;99.90
17571;DHT22;8903;52.220;20.978;2022-10-16T10:12:19;19.40;99.90
17571;DHT22;8903;52.220;20.978;2022-10-16T10:14:47;19.50;99.90
17571;DHT22;8903;52.220;20.978;2022-10-16T10:17:17;19.50;99.90
17571;DHT22;8903;52.220;20.978;2022-10-16T10:19:48;19.70;99.90
17571;DHT22;8903;52.220;20.978;2022-10-16T10:22:29;19.70;99.90
17571;DHT22;8903;52.220;20.978;2022-10-16T10:25:13;19.70;99.90
17571;DHT22;8903;52.220;20.978;2022-10-16T10:27:52;19.70;99.90
17571;DHT22;8903;52.220;20.978;2022-10-16T10:30:26;19.80;99.90
17571;DHT22;8903;52.220;20.978;2022-10-16T10:33:16;19.90;99.90
17571;DHT22;8903;52.220;20.978;2022-10-16T10:35:52;20.00;99.90
17571;DHT22;8903;52.220;20.978;2022-10-16T10:38:30;20.00;99.90
17571;DHT22;8903;52.220;20.978;2022-10-16T10:41:10;20.00;99.90
17571;DHT22;8903;52.220;20.978;2022-10-16T10:43:51;20.00;99.90
17571;DHT22;8903;52.220;20.978;2022-10-16T10:46:28;19.70;99.90
17571;DHT22;8903;52.220;20.978;2022-10-16T10:49:14;19.70;99.90
17571;DHT22;8903;52.220;20.978;2022-10-16T10:51:51;19.70;99.90
17571;DHT22;8903;52.220;20.978;2022-10-16T10:54:26;19.80;99.90
17571;DHT22;8903;52.220;20.978;2022-10-16T10:56:59;19.90;99.90
17571;DHT22;8903;52.220;20.978;2022-10-16T10:59:49;20.10;99.90
17571;DHT22;8903;52.220;20.978;2022-10-16T11:02:26;20.10;99.90
17571;DHT22;8903;52.220;20.978;2022-10-16T11:05:23;20.20;99.90
17571;DHT22;8903;52.220;20.978;2022-10-16T11:07:57;20.20;99.90
17571;DHT22;8903;52.220;20.978;2022-10-16T11:10:30;20.20;99.90
17571;DHT22;8903;52.220;20.978;2022-10-16T11:13:06;20.20;99.90
17571;DHT22;8903;52.220;20.978;2022-10-16T11:15:38;20.20;99.90
17571;DHT22;8903;52.220;20.978;2022-10-16T11:18:08;20.30;99.90
17571;DHT22;8903;52.220;20.978;2022-10-16T11:20:42;20.10;99.90
17571;DHT22;8903;52.220;20.978;2022-10-16T11:23:17;20.10;99.90
17571;DHT22;8903;52.220;20.978;2022-10-16T11:25:48;20.40;99.90
17571;DHT22;8903;52.220;20.978;2022-10-16T11:28:17;20.80;99.90
17571;DHT22;8903;52.220;20.978;2022-10-16T11:30:49;20.90;99.90
17571;DHT22;8903;52.220;20.978;2022-10-16T11:33:25;20.90;99.90
17571;DHT22;8903;52.220;20.978;2022-10-16T11:36:00;20.90;99.90
17571;DHT22;8903;52.220;20.978;2022-10-16T11:38:34;20.90;99.90
17571;DHT22;8903;52.220;20.978;2022-10-16T11:41:15;20.90;99.90
17571;DHT22;8903;52.220;20.978;2022-10-16T11:43:50;20.90;99.90
17571;DHT22;8903;52.220;20.978;2022-10-16T11:46:21;20.90;99.90
17571;DHT22;8903;52.220;20.978;2022-10-16T11:48:55;20.90;99.90
17571;DHT22;8903;52.220;20.978;2022-10-16T11:51:31;21.10;99.90
17571;DHT22;8903;52.220;20.978;2022-10-16T11:54:07;21.40;99.90
17571;DHT22;8903;52.220;20.978;2022-10-16T11:56:41;21.60;99.90
17571;DHT22;8903;52.220;20.978;2022-10-16T11:59:16;21.70;99.90
17571;DHT22;8903;52.220;20.978;2022-10-16T12:01:49;21.70;99.90
17571;DHT22;8903;52.220;20.978;2022-10-16T12:04:24;21.60;99.90
17571;DHT22;8903;52.220;20.978;2022-10-16T12:06:57;21.40;99.90
17571;DHT22;8903;52.220;20.978;2022-10-16T12:09:30;21.10;99.90
17571;DHT22;8903;52.220;20.978;2022-10-16T12:11:59;21.00;99.90
17571;DHT22;8903;52.220;20.978;2022-10-16T12:14:36;20.90;99.90
17571;DHT22;8903;52.220;20.978;2022-10-16T12:19:57;21.10;99.90
17571;DHT22;8903;52.220;20.978;2022-10-16T12:22:27;21.20;99.90
17571;DHT22;8903;52.220;20.978;2022-10-16T12:24:56;21.30;99.90
17571;DHT22;8903;52.220;20.978;2022-10-16T12:27:28;21.20;99.90
17571;DHT22;8903;52.220;20.978;2022-10-16T12:29:58;21.10;99.90
17571;DHT22;8903;52.220;20.978;2022-10-16T12:32:30;21.00;99.90
17571;DHT22;8903;52.220;20.978;2022-10-16T12:34:59;20.90;99.90
17571;DHT22;8903;52.220;20.978;2022-10-16T12:37:28;20.90;99.90
17571;DHT22;8903;52.220;20.978;2022-10-16T12:39:55;21.00;99.90
17571;DHT22;8903;52.220;20.978;2022-10-16T12:42:33;21.00;99.90
17571;DHT22;8903;52.220;20.978;2022-10-16T12:45:01;21.00;99.90
17571;DHT22;8903;52.220;20.978;2022-10-16T12:47:47;20.80;99.90
17571;DHT22;8903;52.220;20.978;2022-10-16T12:50:32;20.80;99.90
17571;DHT22;8903;52.220;20.978;2022-10-16T12:53:01;20.70;99.90
17571;DHT22;8903;52.220;20.978;2022-10-16T12:55:34;20.70;99.90
17571;DHT22;8903;52.220;20.978;2022-10-16T12:58:18;20.60;99.90
17571;DHT22;8903;52.220;20.978;2022-10-16T13:00:54;20.50;99.90
17571;DHT22;8903;52.220;20.978;2022-10-16T13:03:37;20.40;99.90
17571;DHT22;8903;52.220;20.978;2022-10-16T13:06:19;20.20;99.90
17571;DHT22;8903;52.220;20.978;2022-10-16T13:12:06;20.00;99.90
17571;DHT22;8903;52.220;20.978;2022-10-16T13:14:58;20.00;99.90
17571;DHT22;8903;52.220;20.978;2022-10-16T13:17:33;20.00;99.90
17571;DHT22;8903;52.220;20.978;2022-10-16T13:20:12;19.90;99.90
17571;DHT22;8903;52.220;20.978;2022-10-16T13:22:44;19.90;99.90
17571;DHT22;8903;52.220;20.978;2022-10-16T13:25:22;19.90;99.90
17571;DHT22;8903;52.220;20.978;2022-10-16T13:27:55;19.80;99.90
17571;DHT22;8903;52.220;20.978;2022-10-16T13:30:35;19.80;99.90
17571;DHT22;8903;52.220;20.978;2022-10-16T13:33:10;19.70;99.90
17571;DHT22;8903;52.220;20.978;2022-10-16T13:35:48;19.70;99.90
17571;DHT22;8903;52.220;20.978;2022-10-16T13:38:17;19.60;99.90
17571;DHT22;8903;52.220;20.978;2022-10-16T13:40:53;19.60;99.90
17571;DHT22;8903;52.220;20.978;2022-10-16T13:43:23;19.60;99.90
17571;DHT22;8903;52.220;20.978;2022-10-16T13:45:58;19.60;99.90
17571;DHT22;8903;52.220;20.978;2022-10-16T13:48:25;19.60;99.90
17571;DHT22;8903;52.220;20.978;2022-10-16T13:51:04;19.60;99.90
17571;DHT22;8903;52.220;20.978;2022-10-16T13:53:32;19.60;99.90
17571;DHT22;8903;52.220;20.978;2022-10-16T13:56:00;19.60;99.90
17571;DHT22;8903;52.220;20.978;2022-10-16T13:58:28;19.60;99.90
17571;DHT22;8903;52.220;20.978;2022-10-16T14:00:58;19.70;99.90
17571;DHT22;8903;52.220;20.978;2022-10-16T14:03:26;19.70;99.90
17571;DHT22;8903;52.220;20.978;2022-10-16T14:05:56;19.70;99.90
17571;DHT22;8903;52.220;20.978;2022-10-16T14:08:25;19.70;99.90
17571;DHT22;8903;52.220;20.978;2022-10-16T14:10:55;19.70;99.90
17571;DHT22;8903;52.220;20.978;2022-10-16T14:13:31;19.70;99.90
17571;DHT22;8903;52.220;20.978;2022-10-16T14:16:05;19.70;99.90
17571;DHT22;8903;52.220;20.978;2022-10-16T14:18:37;19.70;99.90
17571;DHT22;8903;52.220;20.978;2022-10-16T14:21:06;19.70;99.90
17571;DHT22;8903;52.220;20.978;2022-10-16T14:23:36;19.70;99.90
17571;DHT22;8903;52.220;20.978;2022-10-16T14:26:13;19.70;99.90
17571;DHT22;8903;52.220;20.978;2022-10-16T14:28:42;19.70;99.90
17571;DHT22;8903;52.220;20.978;2022-10-16T14:31:38;19.70;99.90
17571;DHT22;8903;52.220;20.978;2022-10-16T14:34:28;19.60;99.90
17571;DHT22;8903;52.220;20.978;2022-10-16T14:36:59;19.60;99.90
17571;DHT22;8903;52.220;20.978;2022-10-16T14:39:32;19.60;99.90
17571;DHT22;8903;52.220;20.978;2022-10-16T14:42:00;19.60;99.90
17571;DHT22;8903;52.220;20.978;2022-10-16T14:44:29;19.60;99.90
17571;DHT22;8903;52.220;20.978;2022-10-16T14:47:07;19.60;99.90
17571;DHT22;8903;52.220;20.978;2022-10-16T14:49:35;19.60;99.90
17571;DHT22;8903;52.220;20.978;2022-10-16T14:52:08;19.60;99.90
17571;DHT22;8903;52.220;20.978;2022-10-16T14:54:35;19.60;99.90
17571;DHT22;8903;52.220;20.978;2022-10-16T14:57:02;19.50;99.90
17571;DHT22;8903;52.220;20.978;2022-10-16T14:59:32;19.50;99.90
17571;DHT22;8903;52.220;20.978;2022-10-16T15:02:09;19.50;99.90
17571;DHT22;8903;52.220;20.978;2022-10-16T15:04:42;19.50;99.90
17571;DHT22;8903;52.220;20.978;2022-10-16T15:07:09;19.50;99.90
17571;DHT22;8903;52.220;20.978;2022-10-16T15:09:36;19.50;99.90
17571;DHT22;8903;52.220;20.978;2022-10-16T15:12:04;19.40;99.90
17571;DHT22;8903;52.220;20.978;2022-10-16T15:14:31;19.40;99.90
17571;DHT22;8903;52.220;20.978;2022-10-16T15:17:10;19.30;99.90
17571;DHT22;8903;52.220;20.978;2022-10-16T15:19:38;19.30;99.90
17571;DHT22;8903;52.220;20.978;2022-10-16T15:22:05;19.30;99.90
17571;DHT22;8903;52.220;20.978;2022-10-16T15:24:32;19.20;99.90
17571;DHT22;8903;52.220;20.978;2022-10-16T15:26:58;19.20;99.90
17571;DHT22;8903;52.220;20.978;2022-10-16T15:29:25;19.20;99.90
17571;DHT22;8903;52.220;20.978;2022-10-16T15:31:52;19.20;99.90
17571;DHT22;8903;52.220;20.978;2022-10-16T15:34:21;19.10;99.90
17571;DHT22;8903;52.220;20.978;2022-10-16T15:36:47;19.10;99.90
17571;DHT22;8903;52.220;20.978;2022-10-16T15:39:16;19.10;99.90
17571;DHT22;8903;52.220;20.978;2022-10-16T15:41:45;19.00;99.90
17571;DHT22;8903;52.220;20.978;2022-10-16T15:44:16;19.00;99.90
17571;DHT22;8903;52.220;20.978;2022-10-16T15:46:42;19.00;99.90
17571;DHT22;8903;52.220;20.978;2022-10-16T15:49:10;19.00;99.90
17571;DHT22;8903;52.220;20.978;2022-10-16T15:51:40;19.00;99.90
17571;DHT22;8903;52.220;20.978;2022-10-16T15:54:08;19.00;99.90
17571;DHT22;8903;52.220;20.978;2022-10-16T15:56:35;19.00;99.90
17571;DHT22;8903;52.220;20.978;2022-10-16T15:59:03;18.90;99.90
17571;DHT22;8903;52.220;20.978;2022-10-16T16:01:32;18.90;99.90